Impacts TAF Board
For situational awareness. Not to be used for flight planning purposes.
IDs:

KLMT - Klamath Falls Intl, OR, US

Issued at 0539 UTC 22 Oct 2021
Updated at 0611 UTC 22 Oct 2021
Potential Impact None Slight Moderate High
Time0553Z 22/07Z 22/08Z 22/09Z 22/10Z 22/11Z 22/12Z 22/13Z 22/14Z 22/15Z 22/16Z 22/17Z 22/18Z 22/19Z>>
Type OBS PRVL PRVL PRVL PRVL PRVL PRVL PRVL PRVL PRVL PRVL PRVL PRVL PRVL
VIS 10 >6 >6 5 5 >6 >6 >6 >6 >6 >6 >6 >6 >6
CIG 90 70 70 25 25 25 25 25 25 25 25 25 25 25
Cover OVC OVC OVC OVC OVC OVC OVC OVC OVC OVC OVC OVC OVC OVC
FltCat VFR VFR VFR MVFR MVFR MVFR MVFR MVFR MVFR MVFR MVFR MVFR MVFR MVFR
WX -- -RA -RA RA BR RA BR -RA -RA -RA -RA -RA -RA -RA -RA -RA
WDir 150 160 160 180 180 250 250 250 250 250 250 250 250 250
WSpd 18 18 18 16 16 10 10 10 10 10 10 10 10 10
WGst 28 25 25 24 24 -- -- -- -- -- -- -- -- --
Raw TAF
KLMT 220539Z 2206/2306 16018G25KT P6SM -RA SCT040 OVC070
  FM220900 18016G24KT 5SM RA BR OVC025
  FM221100 25010KT P6SM -RA BKN025 OVC035
  FM222000 23014G22KT P6SM VCSH SCT035 OVC050
  FM230200 24005KT P6SM SCT050 BKN080


Raw METAR
KLMT 220553Z AUTO 15018G28KT 10SM FEW036 SCT075 OVC090 13/10 A2984 RMK AO2 PK WND 14031/0532 SLP078 60000 T01330100 10150 20128 56020
KLMT 220453Z AUTO 15015G25KT 10SM OVC065 14/10 A2986 RMK AO2 PK WND 15031/0423 SLP085 T01390100
KLMT 220353Z AUTO 16017G25KT 10SM FEW070 BKN090 13/10 A2988 RMK AO2 SLP095 LAST T01330100

METAR Board
Radar Display
Forecast Discussion
For situational awareness. Not to be used for flight planning purposes.